createdAt,value
2022-11-20T00:01:58.271Z,99831.13
2022-11-20T00:04:27.482Z,99841.16
2022-11-20T00:06:57.594Z,99877.69
2022-11-20T00:09:27.565Z,99912.19
2022-11-20T00:11:56.203Z,99857.41
2022-11-20T00:17:07.091Z,99978.09
2022-11-20T00:19:39.479Z,99914.91
2022-11-20T00:22:11.957Z,99940.03
2022-11-20T00:24:45.519Z,99897.38
2022-11-20T00:27:12.615Z,99864.88
2022-11-20T00:29:44.877Z,99946.00
2022-11-20T00:32:22.056Z,99841.19
2022-11-20T00:35:02.994Z,99872.94
2022-11-20T00:37:35.986Z,99840.22
2022-11-20T00:40:07.940Z,99868.88
2022-11-20T00:42:35.273Z,99873.72
2022-11-20T00:45:03.512Z,99829.72
2022-11-20T00:47:39.122Z,99956.16
2022-11-20T00:50:14.606Z,99818.91
2022-11-20T00:52:44.860Z,99917.66
2022-11-20T00:55:22.981Z,99888.75
2022-11-20T00:57:52.761Z,99918.50
2022-11-20T01:00:25.152Z,99901.88
2022-11-20T01:02:56.995Z,99957.00
2022-11-20T01:05:24.041Z,99833.53
2022-11-20T01:07:59.898Z,99826.47
2022-11-20T01:10:34.187Z,99883.75
2022-11-20T01:13:25.642Z,100004.16
2022-11-20T01:15:55.266Z,99840.09
2022-11-20T01:18:28.563Z,99903.34
2022-11-20T01:21:00.059Z,99873.81
2022-11-20T01:23:39.881Z,99978.00
2022-11-20T01:26:16.745Z,99847.94
2022-11-20T01:28:49.704Z,99836.28
2022-11-20T01:31:24.389Z,99970.94
2022-11-20T01:33:54.119Z,99832.91
2022-11-20T01:36:26.200Z,99930.06
2022-11-20T01:38:59.507Z,99842.00
2022-11-20T01:41:47.114Z,99981.88
2022-11-20T01:44:45.831Z,99860.75
2022-11-20T01:47:47.987Z,99874.44
2022-11-20T01:50:33.552Z,99904.03
2022-11-20T01:53:18.865Z,99885.13
2022-11-20T01:55:56.242Z,99899.38
2022-11-20T01:58:31.587Z,99892.34
2022-11-20T02:00:58.788Z,99845.13
2022-11-20T02:03:32.558Z,99876.81
2022-11-20T02:06:14.563Z,99860.66
2022-11-20T02:08:50.636Z,99812.34
2022-11-20T02:11:17.668Z,99884.69
2022-11-20T02:13:50.791Z,99851.13
2022-11-20T02:16:35.026Z,99944.69
2022-11-20T02:19:18.654Z,99896.53
2022-11-20T02:22:15.899Z,99860.19
2022-11-20T02:24:50.483Z,99800.03
2022-11-20T02:27:21.580Z,99911.72
2022-11-20T02:30:00.386Z,99896.69
2022-11-20T02:32:44.643Z,99930.03
2022-11-20T02:35:41.723Z,99863.44
2022-11-20T02:38:08.913Z,99901.19
2022-11-20T02:40:41.186Z,99867.34
2022-11-20T02:43:08.680Z,99941.28
2022-11-20T02:45:44.304Z,99905.28
2022-11-20T02:48:13.588Z,99860.94
2022-11-20T02:50:49.070Z,99798.38
2022-11-20T02:53:16.241Z,99823.16
2022-11-20T02:55:46.109Z,99933.19
2022-11-20T02:58:16.181Z,99829.69
2022-11-20T03:00:51.670Z,99819.25
2022-11-20T03:03:21.708Z,99815.59
2022-11-20T03:05:54.632Z,99945.31
2022-11-20T03:08:31.749Z,99800.00
2022-11-20T03:11:07.299Z,99879.91
2022-11-20T03:13:37.723Z,99942.28
2022-11-20T03:16:22.042Z,99852.63
2022-11-20T03:18:49.150Z,99799.44
2022-11-20T03:21:22.470Z,99851.66
2022-11-20T03:24:01.540Z,99822.34
2022-11-20T03:26:31.874Z,99859.41
2022-11-20T03:29:03.743Z,99883.88
2022-11-20T03:31:44.762Z,99913.50
2022-11-20T03:34:16.310Z,99930.31
2022-11-20T03:36:48.156Z,99815.47
2022-11-20T03:39:27.749Z,99841.28
2022-11-20T03:41:55.058Z,99928.28
2022-11-20T03:44:24.515Z,99886.50
2022-11-20T03:46:51.625Z,99836.41
2022-11-20T03:49:18.775Z,99843.69
2022-11-20T03:54:26.822Z,99845.63
2022-11-20T03:56:56.793Z,99818.66
2022-11-20T03:59:25.948Z,99870.88
2022-11-20T04:01:55.372Z,99866.66
2022-11-20T04:04:23.428Z,99766.13
2022-11-20T04:06:54.552Z,99777.94
2022-11-20T04:09:23.922Z,99818.50
2022-11-20T04:11:51.207Z,99908.75
2022-11-20T04:14:21.346Z,99864.66
2022-11-20T04:16:51.441Z,99826.34
2022-11-20T04:19:18.899Z,99839.47
2022-11-20T04:21:48.630Z,99756.53
2022-11-20T04:24:24.220Z,99786.09
2022-11-20T04:26:54.701Z,99816.78
2022-11-20T04:29:23.040Z,99793.22
2022-11-20T04:31:50.310Z,99837.09
2022-11-20T04:34:17.507Z,99834.53
2022-11-20T04:36:58.865Z,99762.28
2022-11-20T04:39:47.002Z,99860.94
2022-11-20T04:42:34.985Z,99858.00
2022-11-20T04:45:04.354Z,99888.13
2022-11-20T04:47:34.003Z,99913.63
2022-11-20T04:50:00.908Z,99827.56
2022-11-20T04:52:30.309Z,99739.59
2022-11-20T04:54:59.433Z,99837.72
2022-11-20T04:57:32.722Z,99782.94
2022-11-20T05:00:02.625Z,99812.31
2022-11-20T05:02:35.548Z,99771.34
2022-11-20T05:05:04.780Z,99810.50
2022-11-20T05:07:34.219Z,99772.25
2022-11-20T05:10:15.723Z,99824.34
2022-11-20T05:12:43.065Z,99825.22
2022-11-20T05:15:17.512Z,99836.97
2022-11-20T05:17:52.001Z,99814.59
2022-11-20T05:20:35.520Z,99751.94
2022-11-20T05:23:03.724Z,99781.56
2022-11-20T05:25:37.868Z,99795.63
2022-11-20T05:28:09.459Z,99730.22
2022-11-20T05:30:36.436Z,99810.06
2022-11-20T05:33:06.204Z,99833.28
2022-11-20T05:35:38.747Z,99875.97
2022-11-20T05:38:16.520Z,99829.81
2022-11-20T05:40:43.627Z,99893.50
2022-11-20T05:43:16.267Z,99900.84
2022-11-20T05:46:07.867Z,99899.00
2022-11-20T05:48:37.072Z,99891.28
2022-11-20T05:51:09.788Z,99729.34
2022-11-20T05:53:45.150Z,99805.06
2022-11-20T05:56:18.910Z,99803.38
2022-11-20T05:58:48.833Z,99778.84
2022-11-20T06:01:25.324Z,99744.28
2022-11-20T06:03:59.993Z,99739.19
2022-11-20T06:06:30.235Z,99879.84
2022-11-20T06:09:00.000Z,99891.91
2022-11-20T06:11:28.100Z,99740.91
2022-11-20T06:16:38.322Z,99728.84
2022-11-20T06:19:09.139Z,99868.16
2022-11-20T06:21:39.273Z,99874.75
2022-11-20T06:24:10.791Z,99797.09
2022-11-20T06:26:46.120Z,99732.19
2022-11-20T06:29:16.067Z,99736.53
2022-11-20T06:31:43.913Z,99834.94
2022-11-20T06:34:13.465Z,99759.91
2022-11-20T06:36:44.882Z,99792.75
2022-11-20T06:39:14.835Z,99812.22
2022-11-20T06:41:47.516Z,99742.88
2022-11-20T06:44:14.404Z,99731.19
2022-11-20T06:46:41.393Z,99792.75
2022-11-20T06:49:19.125Z,99731.88
2022-11-20T06:52:03.180Z,99827.47
2022-11-20T06:54:32.876Z,99752.38
2022-11-20T06:57:02.154Z,99784.38
2022-11-20T06:59:36.106Z,99807.94
2022-11-20T07:02:15.941Z,99822.66
2022-11-20T07:07:43.712Z,99821.66
2022-11-20T07:10:14.026Z,99862.84
2022-11-20T07:12:54.307Z,99764.84
2022-11-20T07:15:29.262Z,99797.19
2022-11-20T07:18:05.905Z,99811.31
2022-11-20T07:20:41.347Z,99749.47
2022-11-20T07:23:15.588Z,99754.59
2022-11-20T07:25:47.948Z,99810.75
2022-11-20T07:28:20.390Z,99779.63
2022-11-20T07:30:54.634Z,99826.94
2022-11-20T07:33:21.746Z,99825.16
2022-11-20T07:35:48.909Z,99814.41
2022-11-20T07:38:18.640Z,99871.53
2022-11-20T07:40:45.760Z,99817.25
2022-11-20T07:43:15.027Z,99770.41
2022-11-20T07:45:46.404Z,99794.50
2022-11-20T07:48:13.356Z,99741.50
2022-11-20T07:50:43.003Z,99839.63
2022-11-20T07:53:09.798Z,99758.78
2022-11-20T07:55:36.708Z,99857.50
2022-11-20T07:58:03.498Z,99850.94
2022-11-20T08:00:30.480Z,99840.66
2022-11-20T08:02:57.627Z,99864.31
2022-11-20T08:05:24.722Z,99869.50
2022-11-20T08:07:51.641Z,99876.78
2022-11-20T08:10:18.707Z,99882.53
2022-11-20T08:13:09.191Z,99904.84
2022-11-20T08:15:37.347Z,99912.44
2022-11-20T08:18:30.428Z,99880.00
2022-11-20T08:20:58.409Z,99897.31
2022-11-20T08:23:25.480Z,99891.81
2022-11-20T08:25:52.677Z,99880.09
2022-11-20T08:28:21.743Z,99882.47
2022-11-20T08:30:51.422Z,99914.38
2022-11-20T08:33:19.480Z,99910.06
2022-11-20T08:35:47.245Z,99868.63
2022-11-20T08:38:15.197Z,99937.84
2022-11-20T08:40:42.431Z,99911.25
2022-11-20T08:43:09.354Z,99874.09
2022-11-20T08:45:36.441Z,99936.41
2022-11-20T08:48:04.697Z,99887.59
2022-11-20T08:50:33.784Z,99940.88
2022-11-20T08:53:07.634Z,99892.09
2022-11-20T08:55:36.861Z,99898.97
2022-11-20T08:58:08.187Z,99916.72
2022-11-20T09:00:35.574Z,99912.13
2022-11-20T09:03:03.416Z,99908.78
2022-11-20T09:05:30.851Z,99880.66
2022-11-20T09:07:58.966Z,99905.06
2022-11-20T09:10:26.334Z,99921.66
2022-11-20T09:12:54.206Z,99923.13
2022-11-20T09:15:21.170Z,99885.38
2022-11-20T09:18:03.817Z,99877.81
2022-11-20T09:20:31.949Z,99919.78
2022-11-20T09:22:59.312Z,99944.69
2022-11-20T09:25:26.551Z,99909.28
2022-11-20T09:27:58.039Z,99881.53
2022-11-20T09:30:28.252Z,99862.84
2022-11-20T09:32:56.532Z,99876.31
2022-11-20T09:35:24.016Z,99895.00
2022-11-20T09:37:52.171Z,99959.88
2022-11-20T09:40:45.130Z,99939.94
2022-11-20T09:43:51.223Z,99947.50
2022-11-20T09:46:46.898Z,99966.91
2022-11-20T09:50:11.138Z,99975.34
2022-11-20T09:53:39.189Z,99971.75
2022-11-20T09:56:25.817Z,99970.97
2022-11-20T09:58:57.145Z,99865.13
2022-11-20T10:01:30.657Z,99881.25
2022-11-20T10:04:15.057Z,99969.53
2022-11-20T10:07:31.362Z,99962.06
2022-11-20T10:10:54.019Z,99964.06
2022-11-20T10:13:58.199Z,99963.06
2022-11-20T10:16:45.875Z,99964.25
2022-11-20T10:19:50.280Z,99960.88
2022-11-20T10:22:47.835Z,99961.56
2022-11-20T10:26:10.761Z,99970.06
2022-11-20T10:29:35.521Z,99949.66
2022-11-20T10:32:15.886Z,99934.84
2022-11-20T10:35:01.728Z,99928.56
2022-11-20T10:37:50.961Z,99946.47
2022-11-20T10:40:32.124Z,99948.91
2022-11-20T10:43:04.511Z,99954.84
2022-11-20T10:46:06.749Z,99950.31
2022-11-20T10:48:33.785Z,99885.94
2022-11-20T10:51:14.348Z,99910.00
2022-11-20T10:54:11.107Z,99881.72
2022-11-20T10:57:34.589Z,99939.84
2022-11-20T11:00:10.597Z,99944.25
2022-11-20T11:03:29.199Z,99882.44
2022-11-20T11:06:35.158Z,99931.66
2022-11-20T11:09:39.660Z,99919.34
2022-11-20T11:12:10.931Z,99866.16
2022-11-20T11:15:35.244Z,99907.19
2022-11-20T11:18:02.409Z,99909.91
2022-11-20T11:20:29.492Z,99830.25
2022-11-20T11:22:58.961Z,99848.91
2022-11-20T11:25:29.640Z,99900.63
2022-11-20T11:28:00.262Z,99845.41
2022-11-20T11:30:31.114Z,99842.06
2022-11-20T11:33:07.797Z,99897.59
2022-11-20T11:35:35.319Z,99866.00
2022-11-20T11:38:24.479Z,99897.09
2022-11-20T11:40:57.577Z,99850.09
2022-11-20T11:43:48.345Z,99872.63
2022-11-20T11:46:32.722Z,99885.91
2022-11-20T11:49:12.793Z,99899.47
2022-11-20T11:51:59.457Z,99862.00
2022-11-20T11:54:30.682Z,99842.50
2022-11-20T11:57:03.087Z,99834.31
2022-11-20T11:59:50.388Z,99890.69
2022-11-20T12:02:31.193Z,99880.69
2022-11-20T12:05:17.217Z,99875.75
2022-11-20T12:07:48.477Z,99850.25
2022-11-20T12:10:30.057Z,99823.28
2022-11-20T12:13:19.316Z,99832.25
2022-11-20T12:15:48.720Z,99864.38
2022-11-20T12:22:28.050Z,99872.53
2022-11-20T12:25:37.189Z,99869.31
2022-11-20T12:28:27.846Z,99873.84
2022-11-20T12:31:29.258Z,99868.22
2022-11-20T12:34:39.926Z,99870.19
2022-11-20T12:37:26.112Z,99865.00
2022-11-20T12:39:59.981Z,99868.22
2022-11-20T12:43:12.001Z,99867.19
2022-11-20T12:49:31.018Z,99821.09
2022-11-20T12:52:13.917Z,99862.53
2022-11-20T12:55:09.642Z,99855.13
2022-11-20T12:58:12.845Z,99854.34
2022-11-20T13:00:55.116Z,99765.47
2022-11-20T13:03:42.732Z,99715.38
2022-11-20T13:06:40.444Z,99727.28
2022-11-20T13:09:18.760Z,99760.53
2022-11-20T13:12:00.190Z,99859.38
2022-11-20T13:14:35.531Z,99846.50
2022-11-20T13:17:28.481Z,99841.16
2022-11-20T13:20:17.412Z,99761.59
2022-11-20T13:25:39.335Z,99779.31
2022-11-20T13:28:15.142Z,99840.94
2022-11-20T13:30:58.360Z,99743.94
2022-11-20T13:33:39.965Z,99823.41
2022-11-20T13:36:21.369Z,99678.75
2022-11-20T13:38:55.388Z,99786.16
2022-11-20T13:41:39.144Z,99813.28
2022-11-20T13:44:45.522Z,99836.13
2022-11-20T13:47:51.931Z,99827.84
2022-11-20T13:50:19.656Z,99798.63
2022-11-20T13:52:52.607Z,99814.72
2022-11-20T13:55:39.293Z,99798.97
2022-11-20T13:58:23.353Z,99817.75
2022-11-20T14:00:58.337Z,99817.63
2022-11-20T14:04:04.152Z,99763.84
2022-11-20T14:06:55.647Z,99810.38
2022-11-20T14:09:34.000Z,99754.81
2022-11-20T14:12:01.210Z,99744.84
2022-11-20T14:15:24.049Z,99805.28
2022-11-20T14:17:51.080Z,99787.31
2022-11-20T14:20:56.600Z,99798.94
2022-11-20T14:23:30.013Z,99793.91
2022-11-20T14:25:58.234Z,99789.84
2022-11-20T14:29:02.472Z,99784.22
2022-11-20T14:31:30.162Z,99729.53
2022-11-20T14:33:57.869Z,99731.97
2022-11-20T14:36:26.988Z,99784.88
2022-11-20T14:38:55.148Z,99741.47
2022-11-20T14:41:26.118Z,99742.34
2022-11-20T14:44:03.192Z,99735.50
2022-11-20T14:46:33.490Z,99723.31
2022-11-20T14:49:04.727Z,99770.53
2022-11-20T14:52:09.092Z,99755.56
2022-11-20T14:54:45.766Z,99725.25
2022-11-20T14:57:32.225Z,99736.38
2022-11-20T15:00:06.645Z,99736.19
2022-11-20T15:02:33.765Z,99701.94
2022-11-20T15:05:04.695Z,99753.16
2022-11-20T15:07:35.534Z,99700.44
2022-11-20T15:10:07.597Z,99748.34
2022-11-20T15:12:38.833Z,99697.56
2022-11-20T15:15:07.270Z,99693.31
2022-11-20T15:17:46.196Z,99656.53
2022-11-20T15:20:17.033Z,99603.66
2022-11-20T15:22:46.353Z,99632.91
2022-11-20T15:25:18.092Z,99605.22
2022-11-20T15:27:56.618Z,99649.25
2022-11-20T15:30:24.921Z,99632.59
2022-11-20T15:32:53.152Z,99665.53
2022-11-20T15:35:20.200Z,99727.91
2022-11-20T15:37:47.436Z,99711.16
2022-11-20T15:40:14.407Z,99686.13
2022-11-20T15:43:01.386Z,99721.97
2022-11-20T15:45:34.710Z,99711.16
2022-11-20T15:48:02.581Z,99641.03
2022-11-20T15:50:37.995Z,99691.28
2022-11-20T15:53:05.346Z,99698.72
2022-11-20T15:55:33.099Z,99706.44
2022-11-20T15:58:00.107Z,99650.50
2022-11-20T16:00:28.137Z,99664.75
2022-11-20T16:02:55.112Z,99660.44
2022-11-20T16:05:24.253Z,99666.97
2022-11-20T16:07:52.551Z,99672.09
2022-11-20T16:10:19.534Z,99649.50
2022-11-20T16:13:04.818Z,99659.78
2022-11-20T16:15:47.380Z,99726.47
2022-11-20T16:18:18.625Z,99656.97
2022-11-20T16:20:47.826Z,99709.31
2022-11-20T16:23:16.713Z,99693.44
2022-11-20T16:25:44.502Z,99649.50
2022-11-20T16:28:17.534Z,99675.56
2022-11-20T16:30:46.334Z,99668.13
2022-11-20T16:33:15.809Z,99678.59
2022-11-20T16:35:43.013Z,99693.38
2022-11-20T16:38:10.552Z,99672.31
2022-11-20T16:40:37.517Z,99625.44
2022-11-20T16:43:12.084Z,99618.38
2022-11-20T16:45:45.950Z,99633.59
2022-11-20T16:48:31.686Z,99675.44
2022-11-20T16:50:58.408Z,99601.50
2022-11-20T16:53:25.629Z,99610.00
2022-11-20T16:55:52.731Z,99610.72
2022-11-20T16:58:19.709Z,99629.97
2022-11-20T17:00:51.471Z,99651.59
2022-11-20T17:03:19.100Z,99621.22
2022-11-20T17:05:46.218Z,99630.50
2022-11-20T17:08:12.935Z,99676.34
2022-11-20T17:10:42.296Z,99629.16
2022-11-20T17:13:09.282Z,99630.34
2022-11-20T17:15:36.369Z,99583.78
2022-11-20T17:18:04.353Z,99613.94
2022-11-20T17:20:32.575Z,99643.28
2022-11-20T17:22:59.371Z,99604.13
2022-11-20T17:25:26.465Z,99585.50
2022-11-20T17:28:12.259Z,99638.06
2022-11-20T17:30:39.275Z,99607.09
2022-11-20T17:33:44.553Z,99638.81
2022-11-20T17:36:13.686Z,99631.66
2022-11-20T17:38:59.911Z,99623.19
2022-11-20T17:41:28.778Z,99597.09
2022-11-20T17:44:00.482Z,99578.72
2022-11-20T17:46:30.111Z,99627.56
2022-11-20T17:48:58.067Z,99567.91
2022-11-20T17:51:48.724Z,99623.97
2022-11-20T17:54:16.577Z,99560.88
2022-11-20T17:57:02.092Z,99568.66
2022-11-20T17:59:31.035Z,99557.63
2022-11-20T18:02:02.319Z,99612.31
2022-11-20T18:04:50.457Z,99618.22
2022-11-20T18:07:17.555Z,99610.22
2022-11-20T18:09:45.660Z,99619.22
2022-11-20T18:12:13.716Z,99591.88
2022-11-20T18:14:41.731Z,99585.09
2022-11-20T18:17:13.616Z,99577.72
2022-11-20T18:20:01.187Z,99618.06
2022-11-20T18:22:33.266Z,99611.72
2022-11-20T18:25:03.523Z,99583.28
2022-11-20T18:27:37.286Z,99483.69
2022-11-20T18:30:05.299Z,99504.56
2022-11-20T18:32:35.092Z,99526.59
2022-11-20T18:35:04.045Z,99514.19
2022-11-20T18:37:32.271Z,99587.84
2022-11-20T18:39:59.145Z,99545.75
2022-11-20T18:42:44.697Z,99532.44
2022-11-20T18:45:11.787Z,99532.75
2022-11-20T18:47:40.394Z,99557.59
2022-11-20T18:50:09.526Z,99527.63
2022-11-20T18:52:58.084Z,99576.09
2022-11-20T18:55:47.153Z,99575.63
2022-11-20T18:58:38.728Z,99475.75
2022-11-20T19:03:54.920Z,99511.25
2022-11-20T19:06:23.719Z,99487.59
2022-11-20T19:09:23.874Z,99482.63
2022-11-20T19:14:43.492Z,99434.50
2022-11-20T19:17:20.756Z,99501.72
2022-11-20T19:19:53.039Z,99440.66
2022-11-20T19:22:38.855Z,99424.47
2022-11-20T19:25:12.603Z,99420.06
2022-11-20T19:28:02.413Z,99570.31
2022-11-20T19:30:35.361Z,99414.56
2022-11-20T19:33:04.569Z,99476.72
2022-11-20T19:35:32.597Z,99427.28
2022-11-20T19:38:06.816Z,99448.06
2022-11-20T19:40:35.922Z,99420.56
2022-11-20T19:43:10.113Z,99505.25
2022-11-20T19:45:38.919Z,99481.72
2022-11-20T19:48:14.773Z,99484.97
2022-11-20T19:50:41.974Z,99479.03
2022-11-20T19:53:18.159Z,99403.16
2022-11-20T19:56:03.518Z,99551.22
2022-11-20T19:58:36.083Z,99402.66
2022-11-20T20:01:23.244Z,99422.09
2022-11-20T20:06:44.071Z,99447.91
2022-11-20T20:09:16.571Z,99500.03
2022-11-20T20:11:51.493Z,99525.09
2022-11-20T20:14:21.004Z,99440.50
2022-11-20T20:16:55.080Z,99485.91
2022-11-20T20:19:31.016Z,99397.03
2022-11-20T20:22:00.049Z,99483.78
2022-11-20T20:24:32.214Z,99486.78
2022-11-20T20:27:20.486Z,99418.94
2022-11-20T20:30:00.832Z,99526.91
2022-11-20T20:32:35.815Z,99449.50
2022-11-20T20:35:02.882Z,99533.72
2022-11-20T20:37:41.796Z,99573.31
2022-11-20T20:40:15.099Z,99470.63
2022-11-20T20:42:42.638Z,99452.47
2022-11-20T20:45:15.055Z,99514.94
2022-11-20T20:48:01.011Z,99497.22
2022-11-20T20:50:30.029Z,99497.81
2022-11-20T20:53:19.591Z,99541.50
2022-11-20T20:56:05.211Z,99460.78
2022-11-20T20:58:48.613Z,99480.13
2022-11-20T21:01:34.619Z,99503.84
2022-11-20T21:04:07.409Z,99421.91
2022-11-20T21:06:38.473Z,99439.72
2022-11-20T21:09:11.316Z,99426.38
2022-11-20T21:11:45.764Z,99498.16
2022-11-20T21:14:15.687Z,99481.16
2022-11-20T21:16:48.572Z,99468.09
2022-11-20T21:19:28.654Z,99471.88
2022-11-20T21:22:08.921Z,99508.16
2022-11-20T21:24:42.233Z,99473.75
2022-11-20T21:27:11.565Z,99447.66
2022-11-20T21:29:45.791Z,99480.78
2022-11-20T21:32:23.078Z,99454.06
2022-11-20T21:34:55.480Z,99441.22
2022-11-20T21:37:34.116Z,99454.66
2022-11-20T21:42:58.518Z,99549.44
2022-11-20T21:45:27.892Z,99551.19
2022-11-20T21:47:58.682Z,99536.06
2022-11-20T21:50:28.281Z,99481.34
2022-11-20T21:52:58.950Z,99443.81
2022-11-20T21:56:02.244Z,99576.22
2022-11-20T21:58:42.649Z,99542.38
2022-11-20T22:01:20.652Z,99465.34
2022-11-20T22:06:57.429Z,99544.28
2022-11-20T22:09:30.961Z,99497.41
2022-11-20T22:12:00.113Z,99410.84
2022-11-20T22:14:51.956Z,99549.94
2022-11-20T22:18:04.619Z,99552.53
2022-11-20T22:20:50.364Z,99549.59
2022-11-20T22:26:10.284Z,99538.28
2022-11-20T22:29:10.316Z,99492.81
2022-11-20T22:31:42.688Z,99497.72
2022-11-20T22:34:12.641Z,99450.63
2022-11-20T22:39:30.884Z,99475.28
2022-11-20T22:42:20.744Z,99550.38
2022-11-20T22:44:50.921Z,99408.06
2022-11-20T22:47:37.587Z,99559.34
2022-11-20T22:50:05.383Z,99510.69
2022-11-20T22:52:52.901Z,99561.72
2022-11-20T22:59:06.906Z,99572.16
2022-11-20T23:01:35.149Z,99527.69
2022-11-20T23:04:26.913Z,99505.53
2022-11-20T23:06:56.744Z,99492.09
2022-11-20T23:09:26.363Z,99549.16
2022-11-20T23:12:15.227Z,99581.44
2022-11-20T23:15:01.759Z,99555.50
2022-11-20T23:17:30.176Z,99518.81
2022-11-20T23:20:16.876Z,99557.38
2022-11-20T23:22:51.665Z,99547.44
2022-11-20T23:25:20.918Z,99510.09
2022-11-20T23:27:56.428Z,99525.00
2022-11-20T23:30:23.563Z,99488.28
2022-11-20T23:32:50.500Z,99531.28
2022-11-20T23:35:27.765Z,99483.50
2022-11-20T23:38:20.492Z,99478.25
2022-11-20T23:40:53.812Z,99449.41
2022-11-20T23:43:22.670Z,99442.38
2022-11-20T23:45:54.842Z,99555.84
2022-11-20T23:48:23.596Z,99514.50
2022-11-20T23:50:50.579Z,99536.09
2022-11-20T23:53:20.921Z,99488.91
2022-11-20T23:55:59.658Z,99555.16
2022-11-20T23:58:39.573Z,99557.88
